sensor_id;sensor_type;location;lat;lon;timestamp;pressure;altitude;pressure_sealevel;temperature;humidity
12803;BME280;6465;42.700;23.278;2023-11-21T00:00:23;94817.44;;;4.62;86.56
12803;BME280;6465;42.700;23.278;2023-11-21T00:02:52;94825.19;;;4.63;86.44
12803;BME280;6465;42.700;23.278;2023-11-21T00:05:19;94781.88;;;4.39;86.98
12803;BME280;6465;42.700;23.278;2023-11-21T00:07:48;94828.63;;;4.64;86.87
12803;BME280;6465;42.700;23.278;2023-11-21T00:10:16;94817.66;;;4.56;86.87
12803;BME280;6465;42.700;23.278;2023-11-21T00:12:43;94821.84;;;4.60;86.94
12803;BME280;6465;42.700;23.278;2023-11-21T00:15:13;94823.53;;;4.61;86.91
12803;BME280;6465;42.700;23.278;2023-11-21T00:17:40;94817.53;;;4.59;86.63
12803;BME280;6465;42.700;23.278;2023-11-21T00:20:09;94822.91;;;4.53;88.16
12803;BME280;6465;42.700;23.278;2023-11-21T00:22:38;94822.03;;;4.54;88.55
12803;BME280;6465;42.700;23.278;2023-11-21T00:25:06;94820.25;;;4.56;88.25
12803;BME280;6465;42.700;23.278;2023-11-21T00:27:34;94808.88;;;4.60;87.85
12803;BME280;6465;42.700;23.278;2023-11-21T00:30:02;94809.75;;;4.59;88.29
12803;BME280;6465;42.700;23.278;2023-11-21T00:32:31;94808.81;;;4.61;87.51
12803;BME280;6465;42.700;23.278;2023-11-21T00:34:58;94810.59;;;4.59;87.47
12803;BME280;6465;42.700;23.278;2023-11-21T00:37:26;94818.47;;;4.58;87.84
12803;BME280;6465;42.700;23.278;2023-11-21T00:39:53;94810.72;;;4.56;88.15
12803;BME280;6465;42.700;23.278;2023-11-21T00:42:20;94808.78;;;4.63;87.35
12803;BME280;6465;42.700;23.278;2023-11-21T00:44:48;94809.56;;;4.65;87.35
12803;BME280;6465;42.700;23.278;2023-11-21T00:47:15;94819.91;;;4.66;87.45
12803;BME280;6465;42.700;23.278;2023-11-21T00:49:42;94816.56;;;4.63;87.83
12803;BME280;6465;42.700;23.278;2023-11-21T00:52:09;94821.75;;;4.63;88.36
12803;BME280;6465;42.700;23.278;2023-11-21T00:54:37;94808.13;;;4.56;89.24
12803;BME280;6465;42.700;23.278;2023-11-21T00:57:05;94806.38;;;4.57;88.52
12803;BME280;6465;42.700;23.278;2023-11-21T00:59:33;94798.72;;;4.52;88.42
12803;BME280;6465;42.700;23.278;2023-11-21T01:02:01;94798.66;;;4.55;88.06
12803;BME280;6465;42.700;23.278;2023-11-21T01:04:27;94801.28;;;4.54;87.55
12803;BME280;6465;42.700;23.278;2023-11-21T01:06:54;94803.19;;;4.49;87.10
12803;BME280;6465;42.700;23.278;2023-11-21T01:09:21;94798.88;;;4.48;87.24
12803;BME280;6465;42.700;23.278;2023-11-21T01:11:49;94798.28;;;4.39;87.75
12803;BME280;6465;42.700;23.278;2023-11-21T01:14:17;94791.50;;;4.35;87.78
12803;BME280;6465;42.700;23.278;2023-11-21T01:16:44;94789.84;;;4.33;87.39
12803;BME280;6465;42.700;23.278;2023-11-21T01:19:11;94802.81;;;4.33;87.37
12803;BME280;6465;42.700;23.278;2023-11-21T01:21:38;94801.22;;;4.29;87.59
12803;BME280;6465;42.700;23.278;2023-11-21T01:24:05;94800.34;;;4.28;87.57
12803;BME280;6465;42.700;23.278;2023-11-21T01:26:33;94802.06;;;4.29;87.31
12803;BME280;6465;42.700;23.278;2023-11-21T01:29:01;94801.28;;;4.26;86.51
12803;BME280;6465;42.700;23.278;2023-11-21T01:31:28;94798.03;;;4.19;87.15
12803;BME280;6465;42.700;23.278;2023-11-21T01:33:55;94788.69;;;4.15;87.18
12803;BME280;6465;42.700;23.278;2023-11-21T01:36:22;94804.25;;;4.14;87.01
12803;BME280;6465;42.700;23.278;2023-11-21T01:38:49;94803.56;;;4.09;86.68
12803;BME280;6465;42.700;23.278;2023-11-21T01:41:16;94809.66;;;4.06;86.95
12803;BME280;6465;42.700;23.278;2023-11-21T01:43:42;94802.00;;;4.03;88.20
12803;BME280;6465;42.700;23.278;2023-11-21T01:46:11;94799.34;;;4.05;88.95
12803;BME280;6465;42.700;23.278;2023-11-21T01:48:38;94790.81;;;4.01;87.22
12803;BME280;6465;42.700;23.278;2023-11-21T01:51:05;94786.50;;;4.02;86.72
12803;BME280;6465;42.700;23.278;2023-11-21T01:53:32;94783.94;;;4.00;86.23
12803;BME280;6465;42.700;23.278;2023-11-21T01:55:59;94794.69;;;3.88;86.70
12803;BME280;6465;42.700;23.278;2023-11-21T01:58:26;94797.22;;;3.89;86.35
12803;BME280;6465;42.700;23.278;2023-11-21T02:00:53;94799.06;;;3.84;87.02
12803;BME280;6465;42.700;23.278;2023-11-21T02:03:24;94799.94;;;3.85;86.80
12803;BME280;6465;42.700;23.278;2023-11-21T02:05:52;94798.34;;;3.81;86.64
12803;BME280;6465;42.700;23.278;2023-11-21T02:08:19;94794.97;;;3.77;86.67
12803;BME280;6465;42.700;23.278;2023-11-21T02:10:46;94798.56;;;3.73;86.67
12803;BME280;6465;42.700;23.278;2023-11-21T02:13:13;94796.81;;;3.74;86.96
12803;BME280;6465;42.700;23.278;2023-11-21T02:15:41;94802.75;;;3.77;87.50
12803;BME280;6465;42.700;23.278;2023-11-21T02:18:08;94800.25;;;3.74;87.80
12803;BME280;6465;42.700;23.278;2023-11-21T02:20:38;94800.56;;;3.64;87.99
12803;BME280;6465;42.700;23.278;2023-11-21T02:23:08;94791.81;;;3.68;87.66
12803;BME280;6465;42.700;23.278;2023-11-21T02:25:35;94787.50;;;3.68;87.43
12803;BME280;6465;42.700;23.278;2023-11-21T02:28:03;94788.34;;;3.69;87.67
12803;BME280;6465;42.700;23.278;2023-11-21T02:30:30;94795.06;;;3.74;87.15
12803;BME280;6465;42.700;23.278;2023-11-21T02:32:57;94790.03;;;3.70;87.32
12803;BME280;6465;42.700;23.278;2023-11-21T02:35:24;94791.81;;;3.68;88.03
12803;BME280;6465;42.700;23.278;2023-11-21T02:37:52;94788.44;;;3.64;87.86
12803;BME280;6465;42.700;23.278;2023-11-21T02:40:20;94788.41;;;3.66;87.54
12803;BME280;6465;42.700;23.278;2023-11-21T02:42:47;94787.53;;;3.67;87.68
12803;BME280;6465;42.700;23.278;2023-11-21T02:45:17;94788.34;;;3.69;87.22
12803;BME280;6465;42.700;23.278;2023-11-21T02:47:44;94784.22;;;3.62;87.22
12803;BME280;6465;42.700;23.278;2023-11-21T02:50:11;94788.41;;;3.66;87.00
12803;BME280;6465;42.700;23.278;2023-11-21T02:52:38;94780.09;;;3.54;87.29
12803;BME280;6465;42.700;23.278;2023-11-21T02:55:06;94785.28;;;3.54;87.36
12803;BME280;6465;42.700;23.278;2023-11-21T02:57:35;94788.75;;;3.53;86.81
12803;BME280;6465;42.700;23.278;2023-11-21T03:00:03;94784.63;;;3.48;87.31
12803;BME280;6465;42.700;23.278;2023-11-21T03:02:32;94773.59;;;3.41;87.48
12803;BME280;6465;42.700;23.278;2023-11-21T03:05:04;94777.97;;;3.38;87.43
12803;BME280;6465;42.700;23.278;2023-11-21T03:07:31;94777.97;;;3.38;88.18
12803;BME280;6465;42.700;23.278;2023-11-21T03:09:58;94776.81;;;3.49;87.91
12803;BME280;6465;42.700;23.278;2023-11-21T03:12:25;94783.03;;;3.42;88.22
12803;BME280;6465;42.700;23.278;2023-11-21T03:14:53;94789.78;;;3.48;87.43
12803;BME280;6465;42.700;23.278;2023-11-21T03:17:20;94782.88;;;3.48;87.74
12803;BME280;6465;42.700;23.278;2023-11-21T03:19:47;94784.66;;;3.46;88.05
12803;BME280;6465;42.700;23.278;2023-11-21T03:22:14;94789.09;;;3.41;89.00
12803;BME280;6465;42.700;23.278;2023-11-21T03:24:41;94793.56;;;3.36;88.63
12803;BME280;6465;42.700;23.278;2023-11-21T03:27:08;94797.69;;;3.43;87.93
12803;BME280;6465;42.700;23.278;2023-11-21T03:29:35;94796.09;;;3.38;88.56
12803;BME280;6465;42.700;23.278;2023-11-21T03:32:03;94796.91;;;3.40;88.57
12803;BME280;6465;42.700;23.278;2023-11-21T03:34:32;94789.28;;;3.35;88.91
12803;BME280;6465;42.700;23.278;2023-11-21T03:36:59;94792.81;;;3.31;90.03
12803;BME280;6465;42.700;23.278;2023-11-21T03:39:26;94792.75;;;3.34;90.25
12803;BME280;6465;42.700;23.278;2023-11-21T03:41:54;94784.28;;;3.29;91.38
12803;BME280;6465;42.700;23.278;2023-11-21T03:44:21;94778.25;;;3.29;91.50
12803;BME280;6465;42.700;23.278;2023-11-21T03:46:48;94776.50;;;3.29;92.15
12803;BME280;6465;42.700;23.278;2023-11-21T03:49:17;94769.47;;;3.34;91.83
12803;BME280;6465;42.700;23.278;2023-11-21T03:51:43;94771.88;;;3.40;91.71
12803;BME280;6465;42.700;23.278;2023-11-21T03:54:10;94764.94;;;3.42;91.47
12803;BME280;6465;42.700;23.278;2023-11-21T03:56:37;94761.56;;;3.39;92.13
12803;BME280;6465;42.700;23.278;2023-11-21T03:59:04;94766.66;;;3.42;91.45
12803;BME280;6465;42.700;23.278;2023-11-21T04:01:31;94775.09;;;3.48;90.55
12803;BME280;6465;42.700;23.278;2023-11-21T04:03:58;94766.53;;;3.46;91.04
12803;BME280;6465;42.700;23.278;2023-11-21T04:06:26;94757.00;;;3.48;91.23
12803;BME280;6465;42.700;23.278;2023-11-21T04:08:53;94753.56;;;3.48;91.27
12803;BME280;6465;42.700;23.278;2023-11-21T04:11:20;94761.28;;;3.49;91.05
12803;BME280;6465;42.700;23.278;2023-11-21T04:13:47;94758.69;;;3.49;92.00
12803;BME280;6465;42.700;23.278;2023-11-21T04:16:13;94754.50;;;3.44;91.07
12803;BME280;6465;42.700;23.278;2023-11-21T04:18:40;94768.06;;;3.53;91.07
12803;BME280;6465;42.700;23.278;2023-11-21T04:21:08;94743.56;;;3.36;91.31
12803;BME280;6465;42.700;23.278;2023-11-21T04:23:36;94758.59;;;3.52;90.85
12803;BME280;6465;42.700;23.278;2023-11-21T04:26:03;94762.88;;;3.53;91.55
12803;BME280;6465;42.700;23.278;2023-11-21T04:28:30;94770.63;;;3.53;92.12
12803;BME280;6465;42.700;23.278;2023-11-21T04:30:57;94764.56;;;3.54;92.24
12803;BME280;6465;42.700;23.278;2023-11-21T04:33:24;94769.75;;;3.54;92.67
12803;BME280;6465;42.700;23.278;2023-11-21T04:35:51;94766.19;;;3.58;95.32
12803;BME280;6465;42.700;23.278;2023-11-21T04:38:18;94766.91;;;3.64;95.95
12803;BME280;6465;42.700;23.278;2023-11-21T04:40:46;94769.31;;;3.70;95.32
12803;BME280;6465;42.700;23.278;2023-11-21T04:43:13;94777.88;;;3.72;94.54
12803;BME280;6465;42.700;23.278;2023-11-21T04:45:40;94769.31;;;3.70;93.42
12803;BME280;6465;42.700;23.278;2023-11-21T04:48:06;94770.06;;;3.73;93.06
12803;BME280;6465;42.700;23.278;2023-11-21T04:50:33;94766.72;;;3.70;93.97
12803;BME280;6465;42.700;23.278;2023-11-21T04:53:00;94773.66;;;3.69;93.27
12803;BME280;6465;42.700;23.278;2023-11-21T04:55:27;94783.81;;;3.75;93.43
12803;BME280;6465;42.700;23.278;2023-11-21T04:57:56;94781.13;;;3.78;92.37
12803;BME280;6465;42.700;23.278;2023-11-21T05:00:22;94772.63;;;3.75;92.53
12803;BME280;6465;42.700;23.278;2023-11-21T05:02:49;94770.84;;;3.77;91.64
12803;BME280;6465;42.700;23.278;2023-11-21T05:05:16;94785.56;;;3.75;91.81
12803;BME280;6465;42.700;23.278;2023-11-21T05:07:44;94784.69;;;3.76;91.56
12803;BME280;6465;42.700;23.278;2023-11-21T05:10:11;94769.16;;;3.76;91.45
12803;BME280;6465;42.700;23.278;2023-11-21T05:12:40;94763.78;;;3.82;91.40
12803;BME280;6465;42.700;23.278;2023-11-21T05:15:10;94756.97;;;3.78;91.39
12803;BME280;6465;42.700;23.278;2023-11-21T05:17:40;94765.81;;;3.71;92.26
12803;BME280;6465;42.700;23.278;2023-11-21T05:20:09;94758.97;;;3.70;92.44
12803;BME280;6465;42.700;23.278;2023-11-21T05:22:36;94768.41;;;3.71;92.48
12803;BME280;6465;42.700;23.278;2023-11-21T05:25:04;94765.91;;;3.68;93.16
12803;BME280;6465;42.700;23.278;2023-11-21T05:27:33;94776.09;;;3.74;92.09
12803;BME280;6465;42.700;23.278;2023-11-21T05:30:00;94778.53;;;3.78;92.00
12803;BME280;6465;42.700;23.278;2023-11-21T05:32:29;94779.50;;;3.76;92.04
12803;BME280;6465;42.700;23.278;2023-11-21T05:34:56;94783.13;;;3.70;92.35
12803;BME280;6465;42.700;23.278;2023-11-21T05:37:23;94780.47;;;3.72;92.98
12803;BME280;6465;42.700;23.278;2023-11-21T05:39:51;94781.31;;;3.72;93.18
12803;BME280;6465;42.700;23.278;2023-11-21T05:42:18;94778.66;;;3.75;92.26
12803;BME280;6465;42.700;23.278;2023-11-21T05:44:44;94777.78;;;3.75;92.46
12803;BME280;6465;42.700;23.278;2023-11-21T05:47:11;94784.69;;;3.76;92.50
12803;BME280;6465;42.700;23.278;2023-11-21T05:49:40;94778.63;;;3.77;93.24
12803;BME280;6465;42.700;23.278;2023-11-21T05:52:07;94776.75;;;3.80;93.11
12803;BME280;6465;42.700;23.278;2023-11-21T05:54:35;94775.00;;;3.82;92.46
12803;BME280;6465;42.700;23.278;2023-11-21T05:57:02;94775.09;;;3.78;93.25
12803;BME280;6465;42.700;23.278;2023-11-21T05:59:29;94779.31;;;3.82;93.24
12803;BME280;6465;42.700;23.278;2023-11-21T06:01:56;94781.03;;;3.83;93.21
12803;BME280;6465;42.700;23.278;2023-11-21T06:04:24;94771.44;;;3.85;93.36
12803;BME280;6465;42.700;23.278;2023-11-21T06:06:52;94776.50;;;3.89;92.81
12803;BME280;6465;42.700;23.278;2023-11-21T06:09:19;94772.88;;;3.95;93.59
12803;BME280;6465;42.700;23.278;2023-11-21T06:11:47;94789.31;;;3.94;94.60
12803;BME280;6465;42.700;23.278;2023-11-21T06:14:14;94791.88;;;3.95;94.08
12803;BME280;6465;42.700;23.278;2023-11-21T06:16:43;94790.97;;;3.96;93.77
12803;BME280;6465;42.700;23.278;2023-11-21T06:19:11;94779.69;;;3.97;93.26
12803;BME280;6465;42.700;23.278;2023-11-21T06:21:37;94789.13;;;4.00;93.79
12803;BME280;6465;42.700;23.278;2023-11-21T06:24:07;94788.94;;;4.06;93.36
12803;BME280;6465;42.700;23.278;2023-11-21T06:26:33;94788.19;;;4.03;93.62
12803;BME280;6465;42.700;23.278;2023-11-21T06:29:00;94790.72;;;4.04;93.83
12803;BME280;6465;42.700;23.278;2023-11-21T06:31:28;94795.97;;;4.03;93.95
12803;BME280;6465;42.700;23.278;2023-11-21T06:33:55;94798.41;;;4.07;93.67
12803;BME280;6465;42.700;23.278;2023-11-21T06:36:23;94806.84;;;4.14;93.05
12803;BME280;6465;42.700;23.278;2023-11-21T06:38:50;94805.16;;;4.13;93.46
12803;BME280;6465;42.700;23.278;2023-11-21T06:41:18;94782.88;;;4.07;92.92
12803;BME280;6465;42.700;23.278;2023-11-21T06:43:45;94810.72;;;4.28;93.03
12803;BME280;6465;42.700;23.278;2023-11-21T06:46:12;94814.63;;;4.42;92.53
12803;BME280;6465;42.700;23.278;2023-11-21T06:48:42;94812.69;;;4.48;91.66
12803;BME280;6465;42.700;23.278;2023-11-21T06:51:08;94817.69;;;4.54;91.64
12803;BME280;6465;42.700;23.278;2023-11-21T06:53:36;94811.38;;;4.63;90.79
12803;BME280;6465;42.700;23.278;2023-11-21T06:56:04;94809.53;;;4.66;90.72
12803;BME280;6465;42.700;23.278;2023-11-21T06:58:32;94815.34;;;4.73;90.71
12803;BME280;6465;42.700;23.278;2023-11-21T07:00:59;94812.75;;;4.73;90.58
12803;BME280;6465;42.700;23.278;2023-11-21T07:03:26;94812.56;;;4.79;90.03
12803;BME280;6465;42.700;23.278;2023-11-21T07:05:53;94811.91;;;4.72;91.09
12803;BME280;6465;42.700;23.278;2023-11-21T07:08:19;94814.47;;;4.74;91.07
12803;BME280;6465;42.700;23.278;2023-11-21T07:10:46;94801.44;;;4.75;91.52
12803;BME280;6465;42.700;23.278;2023-11-21T07:13:14;94788.53;;;4.74;91.61
12803;BME280;6465;42.700;23.278;2023-11-21T07:15:42;94801.25;;;4.82;91.97
12803;BME280;6465;42.700;23.278;2023-11-21T07:18:10;94797.59;;;4.87;91.16
12803;BME280;6465;42.700;23.278;2023-11-21T07:20:37;94804.41;;;4.91;91.06
12803;BME280;6465;42.700;23.278;2023-11-21T07:23:04;94801.66;;;4.96;90.81
12803;BME280;6465;42.700;23.278;2023-11-21T07:25:31;94802.38;;;4.99;91.21
12803;BME280;6465;42.700;23.278;2023-11-21T07:27:59;94806.63;;;5.02;91.00
12803;BME280;6465;42.700;23.278;2023-11-21T07:30:26;94807.31;;;5.07;90.76
12803;BME280;6465;42.700;23.278;2023-11-21T07:32:54;94816.63;;;5.12;90.75
12803;BME280;6465;42.700;23.278;2023-11-21T07:35:21;94809.56;;;5.17;90.16
12803;BME280;6465;42.700;23.278;2023-11-21T07:37:48;94811.09;;;5.23;89.80
12803;BME280;6465;42.700;23.278;2023-11-21T07:40:15;94805.78;;;5.26;89.85
12803;BME280;6465;42.700;23.278;2023-11-21T07:42:42;94806.50;;;5.31;89.52
12803;BME280;6465;42.700;23.278;2023-11-21T07:45:09;94802.88;;;5.35;89.68
12803;BME280;6465;42.700;23.278;2023-11-21T07:47:37;94797.53;;;5.40;89.35
12803;BME280;6465;42.700;23.278;2023-11-21T07:50:07;94795.69;;;5.43;88.63
12803;BME280;6465;42.700;23.278;2023-11-21T07:52:34;94800.03;;;5.43;89.58
12803;BME280;6465;42.700;23.278;2023-11-21T07:55:01;94796.53;;;5.44;89.65
12803;BME280;6465;42.700;23.278;2023-11-21T07:57:29;94793.09;;;5.43;89.60
12803;BME280;6465;42.700;23.278;2023-11-21T07:59:55;94793.81;;;5.47;89.75
12803;BME280;6465;42.700;23.278;2023-11-21T08:02:22;94786.72;;;5.52;89.78
12803;BME280;6465;42.700;23.278;2023-11-21T08:04:49;94790.78;;;5.59;89.28
12803;BME280;6465;42.700;23.278;2023-11-21T08:07:18;94785.31;;;5.67;89.02
12803;BME280;6465;42.700;23.278;2023-11-21T08:09:45;94783.28;;;5.75;89.18
12803;BME280;6465;42.700;23.278;2023-11-21T08:12:14;94783.19;;;5.78;88.53
12803;BME280;6465;42.700;23.278;2023-11-21T08:14:42;94783.72;;;5.87;88.51
12803;BME280;6465;42.700;23.278;2023-11-21T08:17:10;94780.66;;;6.00;87.79
12803;BME280;6465;42.700;23.278;2023-11-21T08:19:36;94784.72;;;6.07;87.84
12803;BME280;6465;42.700;23.278;2023-11-21T08:22:03;94783.47;;;6.17;87.51
12803;BME280;6465;42.700;23.278;2023-11-21T08:24:34;94775.63;;;6.18;88.41
12803;BME280;6465;42.700;23.278;2023-11-21T08:27:03;94777.75;;;6.30;87.48
12803;BME280;6465;42.700;23.278;2023-11-21T08:29:30;94785.53;;;6.30;87.84
12803;BME280;6465;42.700;23.278;2023-11-21T08:31:57;94782.41;;;6.44;87.65
12803;BME280;6465;42.700;23.278;2023-11-21T08:34:25;94785.25;;;6.38;87.72
12803;BME280;6465;42.700;23.278;2023-11-21T08:36:52;94781.25;;;6.51;87.24
12803;BME280;6465;42.700;23.278;2023-11-21T08:39:19;94775.00;;;6.55;86.54
12803;BME280;6465;42.700;23.278;2023-11-21T08:41:47;94771.16;;;6.65;86.21
12803;BME280;6465;42.700;23.278;2023-11-21T08:44:14;94768.00;;;6.79;85.44
12803;BME280;6465;42.700;23.278;2023-11-21T08:46:43;94773.31;;;6.76;84.16
12803;BME280;6465;42.700;23.278;2023-11-21T08:49:10;94766.75;;;6.88;83.91
12803;BME280;6465;42.700;23.278;2023-11-21T08:51:38;94762.41;;;6.88;83.64
12803;BME280;6465;42.700;23.278;2023-11-21T08:54:05;94762.13;;;6.94;83.47
12803;BME280;6465;42.700;23.278;2023-11-21T08:56:33;94754.75;;;7.05;83.48
12803;BME280;6465;42.700;23.278;2023-11-21T08:59:02;94745.78;;;7.12;82.93
12803;BME280;6465;42.700;23.278;2023-11-21T09:01:29;94745.44;;;7.20;82.22
12803;BME280;6465;42.700;23.278;2023-11-21T09:03:57;94737.28;;;7.28;81.26
12803;BME280;6465;42.700;23.278;2023-11-21T09:06:24;94734.34;;;7.35;81.13
12803;BME280;6465;42.700;23.278;2023-11-21T09:08:51;94718.31;;;7.44;81.46
12803;BME280;6465;42.700;23.278;2023-11-21T09:11:18;94694.88;;;7.44;80.78
12803;BME280;6465;42.700;23.278;2023-11-21T09:13:45;94702.78;;;7.62;80.49
12803;BME280;6465;42.700;23.278;2023-11-21T09:16:14;94698.34;;;7.64;79.35
12803;BME280;6465;42.700;23.278;2023-11-21T09:18:41;94699.41;;;7.60;79.27
12803;BME280;6465;42.700;23.278;2023-11-21T09:21:08;94695.91;;;7.61;79.22
12803;BME280;6465;42.700;23.278;2023-11-21T09:23:35;94691.50;;;7.61;79.28
12803;BME280;6465;42.700;23.278;2023-11-21T09:26:02;94677.22;;;7.70;79.33
12803;BME280;6465;42.700;23.278;2023-11-21T09:28:30;94659.19;;;7.84;78.64
12803;BME280;6465;42.700;23.278;2023-11-21T09:30:57;94664.28;;;7.87;77.87
12803;BME280;6465;42.700;23.278;2023-11-21T09:33:25;94666.31;;;7.80;78.42
12803;BME280;6465;42.700;23.278;2023-11-21T09:35:52;94659.81;;;7.89;78.37
12803;BME280;6465;42.700;23.278;2023-11-21T09:38:19;94664.75;;;7.95;76.75
12803;BME280;6465;42.700;23.278;2023-11-21T09:40:46;94655.25;;;7.94;76.67
12803;BME280;6465;42.700;23.278;2023-11-21T09:43:16;94644.09;;;7.90;76.28
12803;BME280;6465;42.700;23.278;2023-11-21T09:45:45;94634.03;;;7.83;77.02
12803;BME280;6465;42.700;23.278;2023-11-21T09:48:13;94633.06;;;7.85;76.40
12803;BME280;6465;42.700;23.278;2023-11-21T09:50:42;94618.03;;;7.90;76.66
12803;BME280;6465;42.700;23.278;2023-11-21T09:53:13;94607.38;;;7.95;76.88
12803;BME280;6465;42.700;23.278;2023-11-21T09:55:42;94602.66;;;8.03;76.66
12803;BME280;6465;42.700;23.278;2023-11-21T09:58:09;94609.75;;;8.18;76.80
12803;BME280;6465;42.700;23.278;2023-11-21T10:00:40;94609.03;;;8.33;77.03
12803;BME280;6465;42.700;23.278;2023-11-21T10:03:07;94607.34;;;8.50;76.07
12803;BME280;6465;42.700;23.278;2023-11-21T10:05:34;94597.53;;;8.55;75.10
12803;BME280;6465;42.700;23.278;2023-11-21T10:08:04;94602.97;;;8.67;75.26
12803;BME280;6465;42.700;23.278;2023-11-21T10:10:33;94592.88;;;8.77;74.89
12803;BME280;6465;42.700;23.278;2023-11-21T10:13:02;94589.56;;;8.91;74.78
12803;BME280;6465;42.700;23.278;2023-11-21T10:15:33;94581.75;;;8.91;73.58
12803;BME280;6465;42.700;23.278;2023-11-21T10:18:02;94591.78;;;8.98;72.46
12803;BME280;6465;42.700;23.278;2023-11-21T10:20:30;94573.13;;;9.06;71.99
12803;BME280;6465;42.700;23.278;2023-11-21T10:22:59;94568.75;;;9.06;71.40
12803;BME280;6465;42.700;23.278;2023-11-21T10:25:28;94570.91;;;8.98;71.79
12803;BME280;6465;42.700;23.278;2023-11-21T10:27:58;94575.06;;;9.02;72.59
12803;BME280;6465;42.700;23.278;2023-11-21T10:30:28;94568.09;;;9.19;72.90
12803;BME280;6465;42.700;23.278;2023-11-21T10:32:59;94558.22;;;9.24;71.12
12803;BME280;6465;42.700;23.278;2023-11-21T10:35:39;94554.47;;;9.29;70.79
12803;BME280;6465;42.700;23.278;2023-11-21T10:38:06;94560.88;;;9.39;70.67
12803;BME280;6465;42.700;23.278;2023-11-21T10:40:38;94558.59;;;9.49;70.14
12803;BME280;6465;42.700;23.278;2023-11-21T10:43:08;94552.44;;;9.50;69.60
12803;BME280;6465;42.700;23.278;2023-11-21T10:45:36;94551.06;;;9.43;70.21
12803;BME280;6465;42.700;23.278;2023-11-21T10:48:05;94552.63;;;9.63;70.57
12803;BME280;6465;42.700;23.278;2023-11-21T10:50:34;94545.94;;;9.73;69.05
12803;BME280;6465;42.700;23.278;2023-11-21T10:53:02;94545.69;;;9.77;68.73
12803;BME280;6465;42.700;23.278;2023-11-21T10:55:30;94540.88;;;9.85;69.03
12803;BME280;6465;42.700;23.278;2023-11-21T10:58:01;94539.59;;;9.92;68.50
12803;BME280;6465;42.700;23.278;2023-11-21T11:00:30;94501.84;;;9.82;69.33
12803;BME280;6465;42.700;23.278;2023-11-21T11:02:58;94528.34;;;10.06;69.09
12803;BME280;6465;42.700;23.278;2023-11-21T11:05:27;94531.38;;;10.14;69.14
12803;BME280;6465;42.700;23.278;2023-11-21T11:07:58;94520.81;;;10.16;66.86
12803;BME280;6465;42.700;23.278;2023-11-21T11:10:27;94528.06;;;10.11;66.93
12803;BME280;6465;42.700;23.278;2023-11-21T11:12:55;94513.50;;;10.07;67.42
12803;BME280;6465;42.700;23.278;2023-11-21T11:15:24;94509.47;;;10.17;67.17
12803;BME280;6465;42.700;23.278;2023-11-21T11:17:52;94511.63;;;10.24;66.28
12803;BME280;6465;42.700;23.278;2023-11-21T11:20:23;94488.44;;;10.18;66.67
12803;BME280;6465;42.700;23.278;2023-11-21T11:22:59;94494.75;;;10.30;67.37
12803;BME280;6465;42.700;23.278;2023-11-21T11:25:46;94493.25;;;10.40;67.45
12803;BME280;6465;42.700;23.278;2023-11-21T11:28:21;94487.25;;;10.38;66.56
12803;BME280;6465;42.700;23.278;2023-11-21T11:30:58;94492.81;;;10.48;66.20
12803;BME280;6465;42.700;23.278;2023-11-21T11:33:36;94488.50;;;10.47;64.77
12803;BME280;6465;42.700;23.278;2023-11-21T11:36:09;94480.16;;;10.40;64.85
12803;BME280;6465;42.700;23.278;2023-11-21T11:38:37;94482.31;;;10.33;65.13
12803;BME280;6465;42.700;23.278;2023-11-21T11:41:07;94481.81;;;10.27;66.02
12803;BME280;6465;42.700;23.278;2023-11-21T11:43:34;94500.06;;;10.28;66.38
12803;BME280;6465;42.700;23.278;2023-11-21T11:46:11;94499.97;;;10.30;67.03
12803;BME280;6465;42.700;23.278;2023-11-21T11:48:40;94503.41;;;10.30;67.46
12803;BME280;6465;42.700;23.278;2023-11-21T11:51:10;94504.44;;;10.28;67.44
12803;BME280;6465;42.700;23.278;2023-11-21T11:53:40;94497.88;;;10.21;67.44
12803;BME280;6465;42.700;23.278;2023-11-21T11:56:22;94492.44;;;10.24;67.93
12803;BME280;6465;42.700;23.278;2023-11-21T11:58:51;94484.97;;;10.18;68.29
12803;BME280;6465;42.700;23.278;2023-11-21T12:01:20;94477.28;;;10.15;68.26
12803;BME280;6465;42.700;23.278;2023-11-21T12:06:51;94498.44;;;9.96;70.01
12803;BME280;6465;42.700;23.278;2023-11-21T12:09:18;94496.97;;;9.90;71.10
12803;BME280;6465;42.700;23.278;2023-11-21T12:11:46;94498.19;;;9.85;72.73
12803;BME280;6465;42.700;23.278;2023-11-21T12:14:14;94495.06;;;9.78;74.59
12803;BME280;6465;42.700;23.278;2023-11-21T12:16:42;94493.88;;;9.84;74.59
12803;BME280;6465;42.700;23.278;2023-11-21T12:19:10;94483.13;;;9.74;75.07
12803;BME280;6465;42.700;23.278;2023-11-21T12:21:37;94485.88;;;9.71;75.54
12803;BME280;6465;42.700;23.278;2023-11-21T12:24:05;94485.66;;;9.60;76.84
12803;BME280;6465;42.700;23.278;2023-11-21T12:26:34;94476.06;;;9.61;76.92
12803;BME280;6465;42.700;23.278;2023-11-21T12:29:01;94481.78;;;9.51;77.58
12803;BME280;6465;42.700;23.278;2023-11-21T12:31:29;94491.56;;;9.48;78.07
12803;BME280;6465;42.700;23.278;2023-11-21T12:33:58;94483.47;;;9.52;78.39
12803;BME280;6465;42.700;23.278;2023-11-21T12:36:25;94484.91;;;9.58;79.27
12803;BME280;6465;42.700;23.278;2023-11-21T12:38:54;94487.59;;;9.57;79.90
12803;BME280;6465;42.700;23.278;2023-11-21T12:41:21;94476.22;;;9.58;80.16
12803;BME280;6465;42.700;23.278;2023-11-21T12:43:48;94472.41;;;9.63;80.30
12803;BME280;6465;42.700;23.278;2023-11-21T12:46:16;94464.41;;;9.66;79.76
12803;BME280;6465;42.700;23.278;2023-11-21T12:48:44;94467.59;;;9.71;79.13
12803;BME280;6465;42.700;23.278;2023-11-21T12:51:12;94457.91;;;9.73;79.83
12803;BME280;6465;42.700;23.278;2023-11-21T12:53:42;94462.00;;;9.77;79.28
12803;BME280;6465;42.700;23.278;2023-11-21T12:56:10;94455.78;;;9.80;79.18
12803;BME280;6465;42.700;23.278;2023-11-21T12:58:38;94449.69;;;9.79;78.49
12803;BME280;6465;42.700;23.278;2023-11-21T13:01:07;94452.16;;;9.82;77.69
12803;BME280;6465;42.700;23.278;2023-11-21T13:03:37;94430.47;;;9.80;77.17
12803;BME280;6465;42.700;23.278;2023-11-21T13:06:06;94435.63;;;9.82;77.20
12803;BME280;6465;42.700;23.278;2023-11-21T13:08:35;94445.81;;;9.86;77.51
12803;BME280;6465;42.700;23.278;2023-11-21T13:11:05;94434.56;;;9.84;77.79
12803;BME280;6465;42.700;23.278;2023-11-21T13:13:32;94438.22;;;9.82;77.23
12803;BME280;6465;42.700;23.278;2023-11-21T13:16:00;94438.31;;;9.80;77.04